sensor_id;sensor_type;location;lat;lon;timestamp;pressure;altitude;pressure_sealevel;temperature;humidity
34979;BME280;21185;50.978;13.720;2022-07-29T00:00:38;98481.84;;;20.06;35.86
34979;BME280;21185;50.978;13.720;2022-07-29T00:05:41;98472.41;;;19.98;35.86
34979;BME280;21185;50.978;13.720;2022-07-29T00:10:44;98474.88;;;19.93;35.86
34979;BME280;21185;50.978;13.720;2022-07-29T00:15:46;98467.03;;;19.87;36.14
34979;BME280;21185;50.978;13.720;2022-07-29T00:20:48;98469.75;;;19.80;36.36
34979;BME280;21185;50.978;13.720;2022-07-29T00:25:51;98462.72;;;19.74;36.80
34979;BME280;21185;50.978;13.720;2022-07-29T00:30:53;98455.09;;;19.66;36.99
34979;BME280;21185;50.978;13.720;2022-07-29T00:35:55;98436.13;;;19.57;37.21
34979;BME280;21185;50.978;13.720;2022-07-29T00:40:57;98435.34;;;19.50;37.21
34979;BME280;21185;50.978;13.720;2022-07-29T00:45:59;98433.13;;;19.47;37.39
34979;BME280;21185;50.978;13.720;2022-07-29T00:51:03;98431.75;;;19.45;37.61
34979;BME280;21185;50.978;13.720;2022-07-29T00:56:06;98424.88;;;19.44;37.45
34979;BME280;21185;50.978;13.720;2022-07-29T01:01:07;98419.22;;;19.40;37.90
34979;BME280;21185;50.978;13.720;2022-07-29T01:06:09;98411.97;;;19.35;37.99
34979;BME280;21185;50.978;13.720;2022-07-29T01:11:12;98410.41;;;19.28;38.08
34979;BME280;21185;50.978;13.720;2022-07-29T01:16:54;98409.03;;;19.25;38.34
34979;BME280;21185;50.978;13.720;2022-07-29T01:33:13;98394.34;;;19.11;38.63
34979;BME280;21185;50.978;13.720;2022-07-29T01:38:39;98396.41;;;19.09;38.80
34979;BME280;21185;50.978;13.720;2022-07-29T01:43:57;98381.25;;;19.04;38.71
34979;BME280;21185;50.978;13.720;2022-07-29T01:49:46;98385.13;;;19.02;39.28
34979;BME280;21185;50.978;13.720;2022-07-29T01:54:57;98377.44;;;19.00;39.42
34979;BME280;21185;50.978;13.720;2022-07-29T02:00:00;98390.81;;;18.99;39.19
34979;BME280;21185;50.978;13.720;2022-07-29T02:05:15;98385.53;;;18.99;39.30
34979;BME280;21185;50.978;13.720;2022-07-29T02:10:23;98388.19;;;18.99;39.73
34979;BME280;21185;50.978;13.720;2022-07-29T02:15:28;98383.13;;;18.97;39.69
34979;BME280;21185;50.978;13.720;2022-07-29T02:20:33;98379.47;;;18.98;39.48
34979;BME280;21185;50.978;13.720;2022-07-29T02:25:37;98375.03;;;18.99;39.85
34979;BME280;21185;50.978;13.720;2022-07-29T02:30:42;98373.41;;;18.98;39.94
34979;BME280;21185;50.978;13.720;2022-07-29T02:35:46;98366.53;;;18.97;40.14
34979;BME280;21185;50.978;13.720;2022-07-29T02:40:50;98363.91;;;18.97;40.15
34979;BME280;21185;50.978;13.720;2022-07-29T02:45:54;98364.94;;;18.96;40.54
34979;BME280;21185;50.978;13.720;2022-07-29T02:51:07;98365.97;;;18.95;40.77
34979;BME280;21185;50.978;13.720;2022-07-29T02:56:14;98367.78;;;18.94;40.51
34979;BME280;21185;50.978;13.720;2022-07-29T03:01:23;98366.75;;;18.95;40.75
34979;BME280;21185;50.978;13.720;2022-07-29T03:06:28;98369.59;;;18.94;40.77
34979;BME280;21185;50.978;13.720;2022-07-29T03:11:41;98365.38;;;18.93;41.25
34979;BME280;21185;50.978;13.720;2022-07-29T03:16:52;98369.59;;;18.94;41.38
34979;BME280;21185;50.978;13.720;2022-07-29T03:21:57;98361.13;;;18.92;41.54
34979;BME280;21185;50.978;13.720;2022-07-29T03:27:00;98358.50;;;18.92;41.71
34979;BME280;21185;50.978;13.720;2022-07-29T03:32:04;98356.47;;;18.94;41.60
34979;BME280;21185;50.978;13.720;2022-07-29T03:37:09;98356.84;;;18.97;41.59
34979;BME280;21185;50.978;13.720;2022-07-29T03:42:13;98351.56;;;18.97;41.71
34979;BME280;21185;50.978;13.720;2022-07-29T03:47:20;98346.53;;;18.96;42.00
34979;BME280;21185;50.978;13.720;2022-07-29T03:52:45;98347.53;;;18.95;42.08
34979;BME280;21185;50.978;13.720;2022-07-29T03:57:48;98333.81;;;18.93;42.21
34979;BME280;21185;50.978;13.720;2022-07-29T04:02:51;98340.69;;;18.94;42.32
34979;BME280;21185;50.978;13.720;2022-07-29T04:07:53;98345.94;;;18.94;42.70
34979;BME280;21185;50.978;13.720;2022-07-29T04:12:55;98346.53;;;18.96;42.69
34979;BME280;21185;50.978;13.720;2022-07-29T04:17:58;98354.78;;;18.99;42.63
34979;BME280;21185;50.978;13.720;2022-07-29T04:23:00;98355.19;;;19.03;42.52
34979;BME280;21185;50.978;13.720;2022-07-29T04:28:02;98355.13;;;19.09;42.48
34979;BME280;21185;50.978;13.720;2022-07-29T04:33:06;98353.47;;;19.15;42.59
34979;BME280;21185;50.978;13.720;2022-07-29T04:38:08;98357.28;;;19.19;42.58
34979;BME280;21185;50.978;13.720;2022-07-29T04:43:18;98354.63;;;19.19;42.87
34979;BME280;21185;50.978;13.720;2022-07-29T04:48:24;98366.34;;;19.23;43.42
34979;BME280;21185;50.978;13.720;2022-07-29T04:53:29;98368.13;;;19.29;43.44
34979;BME280;21185;50.978;13.720;2022-07-29T04:58:34;98351.47;;;19.35;43.71
34979;BME280;21185;50.978;13.720;2022-07-29T05:03:36;98360.75;;;19.38;43.69
34979;BME280;21185;50.978;13.720;2022-07-29T05:08:38;98348.41;;;19.38;43.81
34979;BME280;21185;50.978;13.720;2022-07-29T05:13:42;98342.28;;;19.45;44.03
34979;BME280;21185;50.978;13.720;2022-07-29T05:18:46;98343.03;;;19.52;43.92
34979;BME280;21185;50.978;13.720;2022-07-29T05:23:48;98346.56;;;19.64;43.91
34979;BME280;21185;50.978;13.720;2022-07-29T05:28:50;98356.75;;;19.79;43.78
34979;BME280;21185;50.978;13.720;2022-07-29T05:33:52;98358.13;;;19.99;43.57
34979;BME280;21185;50.978;13.720;2022-07-29T05:38:54;98358.63;;;20.08;43.61
34979;BME280;21185;50.978;13.720;2022-07-29T05:43:56;98351.91;;;20.12;43.46
34979;BME280;21185;50.978;13.720;2022-07-29T05:48:58;98344.81;;;20.13;43.87
34979;BME280;21185;50.978;13.720;2022-07-29T05:54:24;98365.44;;;20.16;44.02
34979;BME280;21185;50.978;13.720;2022-07-29T05:59:27;98361.19;;;20.15;44.39
34979;BME280;21185;50.978;13.720;2022-07-29T06:04:32;98354.91;;;20.16;44.66
34979;BME280;21185;50.978;13.720;2022-07-29T06:09:35;98357.31;;;20.17;44.56
34979;BME280;21185;50.978;13.720;2022-07-29T06:14:37;98349.75;;;20.21;44.77
34979;BME280;21185;50.978;13.720;2022-07-29T06:19:39;98357.38;;;20.29;44.73
34979;BME280;21185;50.978;13.720;2022-07-29T06:24:41;98364.78;;;20.39;44.64
34979;BME280;21185;50.978;13.720;2022-07-29T06:30:10;98368.13;;;20.46;45.17
34979;BME280;21185;50.978;13.720;2022-07-29T06:35:12;98375.59;;;20.49;44.96
34979;BME280;21185;50.978;13.720;2022-07-29T06:40:34;98373.75;;;20.49;45.10
34979;BME280;21185;50.978;13.720;2022-07-29T06:45:55;98369.66;;;20.53;44.96
34979;BME280;21185;50.978;13.720;2022-07-29T06:50:58;98375.19;;;20.63;44.76
34979;BME280;21185;50.978;13.720;2022-07-29T06:56:02;98377.28;;;20.73;44.88
34979;BME280;21185;50.978;13.720;2022-07-29T07:01:06;98381.97;;;20.83;44.84
34979;BME280;21185;50.978;13.720;2022-07-29T07:06:08;98381.78;;;20.96;44.63
34979;BME280;21185;50.978;13.720;2022-07-29T07:11:15;98375.84;;;21.12;44.37
34979;BME280;21185;50.978;13.720;2022-07-29T07:16:17;98375.31;;;21.22;44.46
34979;BME280;21185;50.978;13.720;2022-07-29T07:21:20;98379.91;;;21.26;44.50
34979;BME280;21185;50.978;13.720;2022-07-29T07:26:22;98377.97;;;21.33;44.45
34979;BME280;21185;50.978;13.720;2022-07-29T07:31:24;98382.34;;;21.40;44.63
34979;BME280;21185;50.978;13.720;2022-07-29T07:36:27;98383.84;;;21.47;44.32
34979;BME280;21185;50.978;13.720;2022-07-29T07:41:29;98374.41;;;21.63;44.00
34979;BME280;21185;50.978;13.720;2022-07-29T07:46:33;98371.06;;;21.79;44.25
34979;BME280;21185;50.978;13.720;2022-07-29T07:51:35;98365.53;;;21.92;43.79
34979;BME280;21185;50.978;13.720;2022-07-29T07:56:37;98377.81;;;22.10;44.17
34979;BME280;21185;50.978;13.720;2022-07-29T08:01:39;98367.66;;;22.30;43.73
34979;BME280;21185;50.978;13.720;2022-07-29T08:06:57;98367.25;;;22.50;43.79
34979;BME280;21185;50.978;13.720;2022-07-29T08:12:00;98364.78;;;22.60;43.76
34979;BME280;21185;50.978;13.720;2022-07-29T08:17:05;98354.81;;;22.79;43.85
34979;BME280;21185;50.978;13.720;2022-07-29T08:22:07;98348.91;;;22.89;43.64
34979;BME280;21185;50.978;13.720;2022-07-29T08:27:10;98346.81;;;23.08;43.32
34979;BME280;21185;50.978;13.720;2022-07-29T08:32:32;98347.31;;;23.21;43.46
34979;BME280;21185;50.978;13.720;2022-07-29T08:37:54;98340.81;;;23.29;42.97
34979;BME280;21185;50.978;13.720;2022-07-29T08:42:57;98344.88;;;23.37;42.85
34979;BME280;21185;50.978;13.720;2022-07-29T08:48:00;98345.50;;;23.44;43.03
34979;BME280;21185;50.978;13.720;2022-07-29T08:53:02;98355.38;;;23.48;42.74
34979;BME280;21185;50.978;13.720;2022-07-29T08:58:05;98352.34;;;23.56;42.95
34979;BME280;21185;50.978;13.720;2022-07-29T09:03:09;98337.63;;;23.66;42.73
34979;BME280;21185;50.978;13.720;2022-07-29T09:08:15;98343.88;;;23.76;42.59
34979;BME280;21185;50.978;13.720;2022-07-29T09:13:17;98344.81;;;23.87;42.46
34979;BME280;21185;50.978;13.720;2022-07-29T09:18:40;98338.88;;;24.02;41.91
34979;BME280;21185;50.978;13.720;2022-07-29T09:29:23;98319.75;;;24.43;41.46
34979;BME280;21185;50.978;13.720;2022-07-29T09:34:28;98311.13;;;24.58;41.71
34979;BME280;21185;50.978;13.720;2022-07-29T09:39:37;98308.88;;;24.72;41.25
34979;BME280;21185;50.978;13.720;2022-07-29T09:44:48;98313.25;;;24.88;41.33
34979;BME280;21185;50.978;13.720;2022-07-29T09:49:59;98307.16;;;25.20;40.98
34979;BME280;21185;50.978;13.720;2022-07-29T09:55:09;98306.19;;;25.36;40.62
34979;BME280;21185;50.978;13.720;2022-07-29T10:00:19;98304.69;;;25.50;40.64
34979;BME280;21185;50.978;13.720;2022-07-29T10:05:26;98305.13;;;25.84;39.97
34979;BME280;21185;50.978;13.720;2022-07-29T10:10:42;98298.00;;;26.05;39.64
34979;BME280;21185;50.978;13.720;2022-07-29T10:15:44;98302.25;;;25.96;39.44
34979;BME280;21185;50.978;13.720;2022-07-29T10:20:48;98298.50;;;25.87;39.70
34979;BME280;21185;50.978;13.720;2022-07-29T10:26:00;98296.41;;;25.99;38.85
34979;BME280;21185;50.978;13.720;2022-07-29T10:31:05;98288.00;;;26.58;38.15
34979;BME280;21185;50.978;13.720;2022-07-29T10:46:37;98281.09;;;26.67;37.61
34979;BME280;21185;50.978;13.720;2022-07-29T10:51:58;98266.44;;;26.44;37.22
34979;BME280;21185;50.978;13.720;2022-07-29T10:57:21;98272.25;;;26.31;37.76
34979;BME280;21185;50.978;13.720;2022-07-29T11:02:42;98269.84;;;26.19;37.84
34979;BME280;21185;50.978;13.720;2022-07-29T11:24:49;98267.19;;;26.29;37.46
34979;BME280;21185;50.978;13.720;2022-07-29T11:29:54;98269.09;;;26.34;37.38
34979;BME280;21185;50.978;13.720;2022-07-29T11:40:19;98268.00;;;26.25;37.14
34979;BME280;21185;50.978;13.720;2022-07-29T11:45:25;98260.84;;;26.35;36.66
34979;BME280;21185;50.978;13.720;2022-07-29T11:50:46;98271.78;;;26.64;36.46
34979;BME280;21185;50.978;13.720;2022-07-29T11:55:54;98261.94;;;26.75;35.98
34979;BME280;21185;50.978;13.720;2022-07-29T12:00:59;98259.00;;;26.66;35.91
34979;BME280;21185;50.978;13.720;2022-07-29T12:06:12;98254.47;;;26.72;35.92
34979;BME280;21185;50.978;13.720;2022-07-29T12:11:20;98260.34;;;26.74;35.90
34979;BME280;21185;50.978;13.720;2022-07-29T12:16:35;98241.69;;;26.89;35.56
34979;BME280;21185;50.978;13.720;2022-07-29T12:21:52;98251.81;;;26.82;36.18
34979;BME280;21185;50.978;13.720;2022-07-29T12:27:02;98249.16;;;26.77;35.89
34979;BME280;21185;50.978;13.720;2022-07-29T12:32:06;98250.75;;;26.78;35.92
34979;BME280;21185;50.978;13.720;2022-07-29T12:37:21;98244.38;;;26.74;36.27
34979;BME280;21185;50.978;13.720;2022-07-29T12:43:09;98235.31;;;26.65;35.93
34979;BME280;21185;50.978;13.720;2022-07-29T12:48:12;98244.91;;;26.61;36.21
34979;BME280;21185;50.978;13.720;2022-07-29T12:53:15;98244.91;;;26.61;36.02
34979;BME280;21185;50.978;13.720;2022-07-29T13:03:45;98224.38;;;27.07;35.21
34979;BME280;21185;50.978;13.720;2022-07-29T13:09:19;98220.09;;;27.16;35.24
34979;BME280;21185;50.978;13.720;2022-07-29T13:20:03;98207.28;;;27.23;35.19
34979;BME280;21185;50.978;13.720;2022-07-29T13:25:09;98219.53;;;27.29;35.10
34979;BME280;21185;50.978;13.720;2022-07-29T13:30:12;98218.72;;;27.29;35.40
34979;BME280;21185;50.978;13.720;2022-07-29T13:35:14;98217.94;;;27.28;35.18
34979;BME280;21185;50.978;13.720;2022-07-29T13:40:16;98213.44;;;27.19;35.34
34979;BME280;21185;50.978;13.720;2022-07-29T13:45:18;98207.06;;;27.15;35.18
34979;BME280;21185;50.978;13.720;2022-07-29T13:50:20;98206.25;;;27.14;35.06
34979;BME280;21185;50.978;13.720;2022-07-29T13:55:22;98194.81;;;27.14;34.83
34979;BME280;21185;50.978;13.720;2022-07-29T14:00:24;98205.72;;;27.17;34.77
34979;BME280;21185;50.978;13.720;2022-07-29T14:05:27;98199.53;;;27.32;34.69
34979;BME280;21185;50.978;13.720;2022-07-29T14:10:30;98199.97;;;27.54;34.47
34979;BME280;21185;50.978;13.720;2022-07-29T14:15:32;98201.28;;;27.57;34.32
34979;BME280;21185;50.978;13.720;2022-07-29T14:20:39;98189.34;;;27.49;34.49
34979;BME280;21185;50.978;13.720;2022-07-29T14:25:42;98190.44;;;27.38;34.50
34979;BME280;21185;50.978;13.720;2022-07-29T14:30:45;98182.78;;;27.21;34.73
34979;BME280;21185;50.978;13.720;2022-07-29T14:35:47;98182.00;;;27.16;34.17
34979;BME280;21185;50.978;13.720;2022-07-29T14:40:50;98190.53;;;27.18;34.44
34979;BME280;21185;50.978;13.720;2022-07-29T14:45:52;98185.97;;;27.28;34.09
34979;BME280;21185;50.978;13.720;2022-07-29T14:51:02;98184.28;;;27.48;33.91
34979;BME280;21185;50.978;13.720;2022-07-29T14:56:06;98178.09;;;27.67;33.84
34979;BME280;21185;50.978;13.720;2022-07-29T15:01:28;98184.13;;;27.83;33.75
34979;BME280;21185;50.978;13.720;2022-07-29T15:06:30;98186.19;;;27.96;33.59
34979;BME280;21185;50.978;13.720;2022-07-29T15:11:32;98179.56;;;27.89;33.60
34979;BME280;21185;50.978;13.720;2022-07-29T15:16:40;98177.81;;;27.69;33.65
34979;BME280;21185;50.978;13.720;2022-07-29T15:21:44;98181.31;;;27.54;33.89
34979;BME280;21185;50.978;13.720;2022-07-29T15:27:00;98180.00;;;27.52;33.69
34979;BME280;21185;50.978;13.720;2022-07-29T15:32:03;98180.28;;;27.45;33.74
34979;BME280;21185;50.978;13.720;2022-07-29T15:37:06;98164.09;;;27.31;33.58
34979;BME280;21185;50.978;13.720;2022-07-29T15:42:08;98166.03;;;27.16;33.94
34979;BME280;21185;50.978;13.720;2022-07-29T15:47:10;98161.78;;;27.09;33.78
34979;BME280;21185;50.978;13.720;2022-07-29T15:52:12;98159.16;;;27.04;34.07
34979;BME280;21185;50.978;13.720;2022-07-29T15:57:14;98149.03;;;27.01;34.09
34979;BME280;21185;50.978;13.720;2022-07-29T16:02:17;98148.50;;;26.99;33.81
34979;BME280;21185;50.978;13.720;2022-07-29T16:07:19;98145.56;;;26.96;34.04
34979;BME280;21185;50.978;13.720;2022-07-29T16:12:21;98141.84;;;26.92;33.91
34979;BME280;21185;50.978;13.720;2022-07-29T16:17:23;98145.31;;;26.87;33.94
34979;BME280;21185;50.978;13.720;2022-07-29T16:22:25;98139.22;;;26.82;33.93
34979;BME280;21185;50.978;13.720;2022-07-29T16:27:27;98132.03;;;26.77;34.13
34979;BME280;21185;50.978;13.720;2022-07-29T16:32:38;98141.63;;;26.73;34.09
34979;BME280;21185;50.978;13.720;2022-07-29T16:37:41;98132.06;;;26.67;34.13
34979;BME280;21185;50.978;13.720;2022-07-29T16:42:43;98144.56;;;26.61;34.40
34979;BME280;21185;50.978;13.720;2022-07-29T16:47:48;98140.59;;;26.54;34.77
34979;BME280;21185;50.978;13.720;2022-07-29T16:52:50;98139.00;;;26.48;34.90
34979;BME280;21185;50.978;13.720;2022-07-29T16:57:52;98137.16;;;26.43;34.70
34979;BME280;21185;50.978;13.720;2022-07-29T17:02:55;98134.50;;;26.38;34.96
34979;BME280;21185;50.978;13.720;2022-07-29T17:07:57;98139.56;;;26.34;35.16
34979;BME280;21185;50.978;13.720;2022-07-29T17:13:00;98135.25;;;26.28;35.34
34979;BME280;21185;50.978;13.720;2022-07-29T17:18:02;98140.31;;;26.25;35.40
34979;BME280;21185;50.978;13.720;2022-07-29T17:23:13;98131.53;;;26.19;35.33
34979;BME280;21185;50.978;13.720;2022-07-29T17:28:15;98131.28;;;26.15;35.28
34979;BME280;21185;50.978;13.720;2022-07-29T17:33:18;98137.94;;;26.13;35.50
34979;BME280;21185;50.978;13.720;2022-07-29T17:38:20;98136.06;;;26.08;35.32
34979;BME280;21185;50.978;13.720;2022-07-29T17:43:22;98130.47;;;26.05;35.60
34979;BME280;21185;50.978;13.720;2022-07-29T17:48:25;98125.19;;;26.00;36.00
34979;BME280;21185;50.978;13.720;2022-07-29T17:53:28;98128.91;;;25.94;36.05
34979;BME280;21185;50.978;13.720;2022-07-29T17:58:30;98113.22;;;25.87;35.83
34979;BME280;21185;50.978;13.720;2022-07-29T18:03:33;98120.66;;;25.80;36.35
34979;BME280;21185;50.978;13.720;2022-07-29T18:08:38;98121.97;;;25.72;36.31
34979;BME280;21185;50.978;13.720;2022-07-29T18:13:41;98130.44;;;25.64;36.15
34979;BME280;21185;50.978;13.720;2022-07-29T18:18:43;98128.28;;;25.56;36.32
34979;BME280;21185;50.978;13.720;2022-07-29T18:23:46;98134.66;;;25.50;36.66
34979;BME280;21185;50.978;13.720;2022-07-29T18:28:51;98138.34;;;25.44;36.39
34979;BME280;21185;50.978;13.720;2022-07-29T18:33:53;98146.31;;;25.39;36.32
34979;BME280;21185;50.978;13.720;2022-07-29T18:39:01;98135.66;;;25.34;36.62
34979;BME280;21185;50.978;13.720;2022-07-29T18:44:03;98128.72;;;25.28;36.52
34979;BME280;21185;50.978;13.720;2022-07-29T18:49:05;98129.25;;;25.20;36.82
34979;BME280;21185;50.978;13.720;2022-07-29T18:54:13;98132.13;;;25.13;36.83
34979;BME280;21185;50.978;13.720;2022-07-29T18:59:18;98138.72;;;25.05;36.87
34979;BME280;21185;50.978;13.720;2022-07-29T19:04:26;98141.38;;;25.00;36.75
34979;BME280;21185;50.978;13.720;2022-07-29T19:09:28;98148.78;;;24.98;37.00
34979;BME280;21185;50.978;13.720;2022-07-29T19:14:31;98153.31;;;24.98;36.75
34979;BME280;21185;50.978;13.720;2022-07-29T19:19:33;98151.94;;;24.95;37.06
34979;BME280;21185;50.978;13.720;2022-07-29T19:24:36;98168.38;;;24.92;37.08
34979;BME280;21185;50.978;13.720;2022-07-29T19:29:38;98174.19;;;24.89;37.00
34979;BME280;21185;50.978;13.720;2022-07-29T19:34:40;98168.34;;;24.87;37.24
34979;BME280;21185;50.978;13.720;2022-07-29T19:39:51;98171.50;;;24.84;37.25
34979;BME280;21185;50.978;13.720;2022-07-29T19:44:53;98176.28;;;24.82;37.79
34979;BME280;21185;50.978;13.720;2022-07-29T19:49:55;98174.38;;;24.77;38.00
34979;BME280;21185;50.978;13.720;2022-07-29T19:54:57;98186.31;;;24.75;38.22
34979;BME280;21185;50.978;13.720;2022-07-29T19:59:59;98197.19;;;24.73;38.09
34979;BME280;21185;50.978;13.720;2022-07-29T20:05:01;98189.19;;;24.68;38.49
34979;BME280;21185;50.978;13.720;2022-07-29T20:10:05;98182.78;;;24.64;38.28
34979;BME280;21185;50.978;13.720;2022-07-29T20:15:11;98188.59;;;24.61;38.43
34979;BME280;21185;50.978;13.720;2022-07-29T20:20:17;98191.47;;;24.54;38.60
34979;BME280;21185;50.978;13.720;2022-07-29T20:25:19;98190.09;;;24.47;39.15
34979;BME280;21185;50.978;13.720;2022-07-29T20:30:21;98188.69;;;24.39;39.40
34979;BME280;21185;50.978;13.720;2022-07-29T20:35:24;98193.41;;;24.32;39.51
34979;BME280;21185;50.978;13.720;2022-07-29T20:40:27;98192.78;;;24.25;39.63
34979;BME280;21185;50.978;13.720;2022-07-29T20:45:29;98190.91;;;24.20;39.45
34979;BME280;21185;50.978;13.720;2022-07-29T20:50:32;98204.09;;;24.15;39.66
34979;BME280;21185;50.978;13.720;2022-07-29T20:55:34;98195.31;;;24.10;39.90
34979;BME280;21185;50.978;13.720;2022-07-29T21:00:36;98202.91;;;24.01;40.50
34979;BME280;21185;50.978;13.720;2022-07-29T21:05:38;98207.88;;;23.93;40.56
34979;BME280;21185;50.978;13.720;2022-07-29T21:10:43;98207.50;;;23.84;41.20
34979;BME280;21185;50.978;13.720;2022-07-29T21:15:48;98204.50;;;23.75;41.61
34979;BME280;21185;50.978;13.720;2022-07-29T21:20:53;98194.34;;;23.67;41.45
34979;BME280;21185;50.978;13.720;2022-07-29T21:25:55;98197.19;;;23.61;41.28
34979;BME280;21185;50.978;13.720;2022-07-29T21:30:59;98198.47;;;23.58;41.92
34979;BME280;21185;50.978;13.720;2022-07-29T21:36:03;98195.28;;;23.56;41.95
34979;BME280;21185;50.978;13.720;2022-07-29T21:41:25;98202.97;;;23.57;41.78
34979;BME280;21185;50.978;13.720;2022-07-29T21:46:27;98197.94;;;23.56;42.45
34979;BME280;21185;50.978;13.720;2022-07-29T21:51:29;98194.47;;;23.55;42.17
34979;BME280;21185;50.978;13.720;2022-07-29T21:56:31;98196.53;;;23.53;42.45
34979;BME280;21185;50.978;13.720;2022-07-29T22:01:33;98196.78;;;23.52;42.57
34979;BME280;21185;50.978;13.720;2022-07-29T22:06:43;98197.03;;;23.50;42.86
34979;BME280;21185;50.978;13.720;2022-07-29T22:11:45;98198.81;;;23.45;42.74
34979;BME280;21185;50.978;13.720;2022-07-29T22:16:48;98208.38;;;23.46;43.01
34979;BME280;21185;50.978;13.720;2022-07-29T22:21:50;98205.41;;;23.42;43.39
34979;BME280;21185;50.978;13.720;2022-07-29T22:26:52;98201.72;;;23.43;43.35
34979;BME280;21185;50.978;13.720;2022-07-29T22:31:54;98198.81;;;23.45;43.33
34979;BME280;21185;50.978;13.720;2022-07-29T22:36:59;98196.41;;;23.43;43.70
34979;BME280;21185;50.978;13.720;2022-07-29T22:42:02;98206.22;;;23.43;43.57
34979;BME280;21185;50.978;13.720;2022-07-29T22:47:04;98195.31;;;23.39;43.92
34979;BME280;21185;50.978;13.720;2022-07-29T22:52:06;98188.66;;;23.37;43.73
34979;BME280;21185;50.978;13.720;2022-07-29T22:57:08;98191.81;;;23.34;44.07
34979;BME280;21185;50.978;13.720;2022-07-29T23:02:10;98184.59;;;23.29;43.80
34979;BME280;21185;50.978;13.720;2022-07-29T23:07:12;98192.78;;;23.27;44.34
34979;BME280;21185;50.978;13.720;2022-07-29T23:12:13;98184.53;;;23.24;44.19
34979;BME280;21185;50.978;13.720;2022-07-29T23:17:18;98183.19;;;23.21;44.63
34979;BME280;21185;50.978;13.720;2022-07-29T23:22:20;98194.56;;;23.22;44.64
34979;BME280;21185;50.978;13.720;2022-07-29T23:27:22;98203.81;;;23.19;44.75
34979;BME280;21185;50.978;13.720;2022-07-29T23:32:24;98190.56;;;23.19;44.91
34979;BME280;21185;50.978;13.720;2022-07-29T23:37:26;98193.78;;;23.21;44.91
34979;BME280;21185;50.978;13.720;2022-07-29T23:42:28;98193.47;;;23.18;45.50
34979;BME280;21185;50.978;13.720;2022-07-29T23:47:33;98198.44;;;23.14;45.86
34979;BME280;21185;50.978;13.720;2022-07-29T23:52:35;98212.41;;;23.10;46.49
34979;BME280;21185;50.978;13.720;2022-07-29T23:57:37;98203.59;;;23.04;46.81
